Time;durP1;ratioP1;P1;durP2;ratioP2;P2;SDS_P1;SDS_P2;PMS_P1;PMS_P2;Temp;Humidity;BMP_temperature;BMP_pressure;BME280_temperature;BME280_humidity;BME280_pressure;Samples;Min_cycle;Max_cycle;Signal;HPM_P1;HPM_P2
2021/03/01 00:00:00;;;;;;;14.75;12.82;;;8.10;71.90;;;;;;4993239;28;20128;-81
2021/03/01 00:02:26;;;;;;;14.93;13.43;;;8.10;71.90;;;;;;5004398;28;20030;-80
2021/03/01 00:04:52;;;;;;;16.13;13.40;;;8.10;71.90;;;;;;5004972;28;20030;-82
2021/03/01 00:07:18;;;;;;;16.83;14.68;;;8.00;71.80;;;;;;5005188;28;20108;-82
2021/03/01 00:09:44;;;;;;;14.60;13.10;;;8.00;71.80;;;;;;5006212;28;20420;-81
2021/03/01 00:12:11;;;;;;;16.35;14.75;;;8.00;71.90;;;;;;5006698;28;20033;-82
2021/03/01 00:14:37;;;;;;;16.48;13.80;;;8.00;71.90;;;;;;5005188;28;20594;-84
2021/03/01 00:17:03;;;;;;;18.73;13.98;;;8.00;72.00;;;;;;5006713;28;20465;-84
2021/03/01 00:19:28;;;;;;;15.13;13.52;;;8.00;72.00;;;;;;5007768;28;20036;-83
2021/03/01 00:21:54;;;;;;;17.05;13.63;;;8.00;72.10;;;;;;5011640;28;20543;-83
2021/03/01 00:24:20;;;;;;;14.70;13.20;;;8.00;72.10;;;;;;5010711;28;20458;-81
2021/03/01 00:26:47;;;;;;;14.38;12.98;;;8.00;72.10;;;;;;5026980;28;20026;-83
2021/03/01 00:29:13;;;;;;;17.05;14.60;;;8.00;72.10;;;;;;5004646;28;20034;-82
2021/03/01 00:31:38;;;;;;;18.75;13.93;;;7.90;71.90;;;;;;4992274;28;20042;-81
2021/03/01 00:34:04;;;;;;;15.65;13.90;;;7.90;71.90;;;;;;5000738;28;20076;-80
2021/03/01 00:36:30;;;;;;;14.73;13.23;;;7.90;71.90;;;;;;5009020;28;20128;-79
2021/03/01 00:38:56;;;;;;;14.95;13.45;;;7.90;72.00;;;;;;5003883;28;20121;-78
2021/03/01 00:41:22;;;;;;;13.70;12.25;;;7.80;71.80;;;;;;5006679;28;20042;-80
2021/03/01 00:43:48;;;;;;;17.02;13.27;;;7.80;71.80;;;;;;5007901;28;20113;-79
2021/03/01 00:46:14;;;;;;;14.63;13.15;;;7.80;71.80;;;;;;5007380;28;20112;-80
2021/03/01 00:48:40;;;;;;;14.43;12.73;;;7.80;71.90;;;;;;5007419;28;20029;-80
2021/03/01 00:51:06;;;;;;;15.98;14.02;;;7.70;71.70;;;;;;5008909;28;20057;-80
2021/03/01 00:53:32;;;;;;;17.92;13.00;;;7.70;71.80;;;;;;5007521;28;20049;-81
2021/03/01 00:55:58;;;;;;;20.77;14.50;;;7.70;71.80;;;;;;5023720;28;20075;-79
2021/03/01 00:58:24;;;;;;;16.65;13.68;;;7.70;71.90;;;;;;5024507;28;20072;-81
2021/03/01 01:00:52;;;;;;;15.52;13.90;;;7.60;71.70;;;;;;5006738;28;20049;-80
2021/03/01 01:03:20;;;;;;;13.90;12.50;;;7.60;71.80;;;;;;4991528;28;20030;-81
2021/03/01 01:05:55;;;;;;;16.10;13.45;;;7.60;71.90;;;;;;5007766;28;20541;-80
2021/03/01 01:08:21;;;;;;;14.85;12.73;;;7.60;72.00;;;;;;5009270;28;20030;-82
2021/03/01 01:10:47;;;;;;;14.48;12.68;;;7.60;72.00;;;;;;5007217;28;20041;-78
2021/03/01 01:13:13;;;;;;;15.90;12.65;;;7.50;71.80;;;;;;5006363;28;20030;-79
2021/03/01 01:15:39;;;;;;;14.48;12.93;;;7.50;71.90;;;;;;5005997;28;20131;-79
2021/03/01 01:18:06;;;;;;;14.55;12.98;;;7.50;71.90;;;;;;5007975;28;20419;-78
2021/03/01 01:20:32;;;;;;;14.55;12.98;;;7.50;72.00;;;;;;5007662;28;20046;-79
2021/03/01 01:22:58;;;;;;;17.58;13.23;;;7.40;71.80;;;;;;5023205;28;20060;-79
2021/03/01 01:25:24;;;;;;;14.88;13.27;;;7.40;71.90;;;;;;5007108;28;20034;-81
2021/03/01 01:27:50;;;;;;;15.60;13.93;;;7.40;71.90;;;;;;5007204;28;20481;-80
2021/03/01 01:30:20;;;;;;;13.07;11.73;;;7.40;71.90;;;;;;5007313;28;20041;-81
2021/03/01 01:32:46;;;;;;;14.85;13.30;;;7.40;71.90;;;;;;5006724;28;20423;-80
2021/03/01 01:35:13;;;;;;;15.70;14.10;;;7.40;72.00;;;;;;5006562;28;20030;-80
2021/03/01 01:37:39;;;;;;;14.77;13.05;;;7.40;71.90;;;;;;5007415;28;20037;-79
2021/03/01 01:40:08;;;;;;;15.05;13.50;;;7.30;71.70;;;;;;5006612;28;20034;-81
2021/03/01 01:42:35;;;;;;;16.83;13.13;;;7.30;71.80;;;;;;5007440;28;20033;-81
2021/03/01 01:45:05;;;;;;;15.32;13.77;;;7.30;71.80;;;;;;5007640;28;20421;-81
2021/03/01 01:47:31;;;;;;;14.68;13.18;;;7.30;71.90;;;;;;4990459;28;20041;-81
2021/03/01 01:49:57;;;;;;;16.65;14.07;;;7.30;71.90;;;;;;5008218;28;20377;-81
2021/03/01 01:52:23;;;;;;;15.82;12.88;;;7.20;71.80;;;;;;5007535;28;20030;-81
2021/03/01 01:54:48;;;;;;;14.40;12.93;;;7.20;71.80;;;;;;5026073;28;20033;-81
2021/03/01 01:57:16;;;;;;;15.80;13.45;;;7.20;71.90;;;;;;5026089;28;20429;-81
2021/03/01 01:59:43;;;;;;;14.85;13.27;;;7.10;71.80;;;;;;5013765;28;20052;-80
2021/03/01 02:02:09;;;;;;;15.82;12.68;;;7.10;71.80;;;;;;5006455;28;20457;-79
2021/03/01 02:04:43;;;;;;;14.30;12.82;;;7.10;71.80;;;;;;5006466;28;20025;-80
2021/03/01 02:07:47;;;;;;;14.77;13.35;;;7.10;71.90;;;;;;5006171;28;20029;-78
2021/03/01 02:10:26;;;;;;;15.10;13.57;;;7.10;71.90;;;;;;4985552;28;20114;-81
2021/03/01 02:13:17;;;;;;;17.38;13.15;;;7.10;71.90;;;;;;4984898;28;20049;-83
2021/03/01 02:15:53;;;;;;;15.65;13.90;;;7.00;71.80;;;;;;5001843;28;20044;-80
2021/03/01 02:18:19;;;;;;;13.77;12.38;;;7.10;71.90;;;;;;5006583;28;20105;-80
2021/03/01 02:20:47;;;;;;;14.95;13.38;;;7.00;71.80;;;;;;5006223;28;20057;-82
2021/03/01 02:23:14;;;;;;;18.80;13.70;;;7.00;71.80;;;;;;5006653;28;20037;-79
2021/03/01 02:25:56;;;;;;;15.32;13.77;;;7.00;71.80;;;;;;5007441;28;20432;-80
2021/03/01 02:28:29;;;;;;;14.00;12.55;;;7.00;71.90;;;;;;4989808;28;20032;-85
2021/03/01 02:30:57;;;;;;;16.27;13.57;;;7.00;71.90;;;;;;5005710;28;20438;-83
2021/03/01 02:33:32;;;;;;;14.05;12.55;;;6.90;72.20;;;;;;4997871;28;20033;-82
2021/03/01 02:36:02;;;;;;;13.73;12.30;;;6.90;71.80;;;;;;5006853;28;20044;-79
2021/03/01 02:38:30;;;;;;;14.10;12.70;;;6.90;71.80;;;;;;5006657;28;20126;-78
2021/03/01 02:40:58;;;;;;;14.88;12.52;;;6.90;71.80;;;;;;5007699;28;20041;-79
2021/03/01 02:43:27;;;;;;;15.20;12.77;;;6.90;71.80;;;;;;5007700;28;20456;-82
2021/03/01 02:45:54;;;;;;;14.60;12.23;;;6.80;71.70;;;;;;5004420;28;20142;-81
2021/03/01 02:48:22;;;;;;;14.77;13.27;;;6.80;71.70;;;;;;5009902;28;20049;-80
2021/03/01 02:50:49;;;;;;;14.57;13.07;;;6.80;71.80;;;;;;5010921;28;20151;-79
2021/03/01 02:53:16;;;;;;;15.88;13.35;;;6.80;71.80;;;;;;4992793;28;20125;-80
2021/03/01 02:55:47;;;;;;;15.38;13.85;;;6.80;71.80;;;;;;5008036;28;20037;-78
2021/03/01 02:58:16;;;;;;;15.23;12.85;;;6.70;71.60;;;;;;5029013;28;20366;-80
2021/03/01 03:00:43;;;;;;;13.00;11.70;;;6.70;71.70;;;;;;5025502;28;20452;-79
2021/03/01 03:03:12;;;;;;;15.65;11.77;;;6.60;71.50;;;;;;5009284;28;20091;-79
2021/03/01 03:05:43;;;;;;;13.88;12.15;;;6.60;71.60;;;;;;5009113;28;20483;-78
2021/03/01 03:08:10;;;;;;;13.75;12.38;;;6.60;71.60;;;;;;5009040;28;20249;-80
2021/03/01 03:10:39;;;;;;;15.80;13.02;;;6.60;71.70;;;;;;4992884;28;20029;-80
2021/03/01 03:13:06;;;;;;;14.68;12.30;;;6.60;71.70;;;;;;5009647;28;20056;-80
2021/03/01 03:15:33;;;;;;;14.90;12.15;;;6.60;71.70;;;;;;4992494;28;20026;-79
2021/03/01 03:18:01;;;;;;;14.45;12.95;;;6.50;71.60;;;;;;5010163;28;20037;-79
2021/03/01 03:20:27;;;;;;;13.40;11.55;;;6.50;71.60;;;;;;5008879;28;20179;-79
2021/03/01 03:22:54;;;;;;;14.32;12.90;;;6.50;71.60;;;;;;5008563;28;20026;-81
2021/03/01 03:25:19;;;;;;;14.20;12.73;;;6.50;71.60;;;;;;5009020;28;20135;-79
2021/03/01 03:27:45;;;;;;;13.70;11.85;;;6.40;71.50;;;;;;5010439;28;20073;-79
2021/03/01 03:30:15;;;;;;;14.30;12.25;;;6.50;71.70;;;;;;5010365;28;20461;-78
2021/03/01 03:32:41;;;;;;;16.48;12.07;;;6.40;71.50;;;;;;4992203;28;20113;-80
2021/03/01 03:35:10;;;;;;;13.82;12.18;;;6.40;71.50;;;;;;4992388;28;20030;-78
2021/03/01 03:37:45;;;;;;;14.75;12.07;;;6.40;71.60;;;;;;5008368;28;20060;-79
2021/03/01 03:40:13;;;;;;;13.23;11.48;;;6.40;71.60;;;;;;4991915;28;20053;-76
2021/03/01 03:42:41;;;;;;;14.48;11.85;;;6.40;71.70;;;;;;5010027;28;20128;-79
2021/03/01 03:45:08;;;;;;;13.50;12.10;;;6.30;71.50;;;;;;4992168;28;20389;-78
2021/03/01 03:47:34;;;;;;;17.15;11.50;;;6.30;71.50;;;;;;5008180;28;20064;-79
2021/03/01 03:50:03;;;;;;;13.95;12.05;;;6.30;71.60;;;;;;5008444;28;20064;-80
2021/03/01 03:52:34;;;;;;;14.20;12.38;;;6.20;71.40;;;;;;5008459;28;20045;-79
2021/03/01 03:55:01;;;;;;;12.32;11.02;;;6.20;71.40;;;;;;5011664;28;20038;-79
2021/03/01 03:57:30;;;;;;;11.68;10.48;;;6.20;71.50;;;;;;5012486;28;20030;-77
2021/03/01 03:59:57;;;;;;;14.20;11.63;;;6.20;71.50;;;;;;5012221;28;20100;-79
2021/03/01 04:02:25;;;;;;;12.63;11.32;;;6.20;71.50;;;;;;5011933;28;20518;-80
2021/03/01 04:04:53;;;;;;;13.32;11.93;;;6.10;71.40;;;;;;5012589;28;20037;-79
2021/03/01 04:07:23;;;;;;;12.45;11.25;;;6.20;71.60;;;;;;5013720;28;20041;-79
2021/03/01 04:09:51;;;;;;;21.40;12.02;;;6.20;71.60;;;;;;5012599;28;20030;-79
2021/03/01 04:12:19;;;;;;;13.10;11.70;;;6.10;71.50;;;;;;5012399;28;20044;-80
2021/03/01 04:14:47;;;;;;;12.18;10.38;;;6.10;71.50;;;;;;5012216;28;20129;-79
2021/03/01 04:17:16;;;;;;;12.80;11.55;;;6.10;71.50;;;;;;5013064;28;20036;-81
2021/03/01 04:19:45;;;;;;;13.90;10.93;;;6.10;71.50;;;;;;5012443;28;20034;-79
2021/03/01 04:22:14;;;;;;;14.90;11.98;;;6.10;71.60;;;;;;5012105;28;20037;-79
2021/03/01 04:24:43;;;;;;;13.77;12.02;;;6.10;71.60;;;;;;5012005;28;20045;-78
2021/03/01 04:27:10;;;;;;;13.13;10.52;;;6.10;71.60;;;;;;5013120;28;20303;-78
2021/03/01 04:29:37;;;;;;;12.60;11.30;;;6.10;71.60;;;;;;5012321;28;20620;-81
2021/03/01 04:32:03;;;;;;;13.88;11.15;;;6.10;71.60;;;;;;5011799;28;20033;-80
2021/03/01 04:34:29;;;;;;;11.20;10.10;;;6.10;71.70;;;;;;5011825;28;20034;-80
2021/03/01 04:36:56;;;;;;;13.48;10.90;;;6.00;71.50;;;;;;5012153;28;20221;-79
2021/03/01 04:39:24;;;;;;;11.93;10.02;;;6.00;71.50;;;;;;5011539;28;20030;-79
2021/03/01 04:41:51;;;;;;;13.02;11.30;;;6.00;71.50;;;;;;5011498;28;20046;-78
2021/03/01 04:44:18;;;;;;;12.52;9.85;;;6.00;71.50;;;;;;5011629;28;20434;-78
2021/03/01 04:46:52;;;;;;;11.82;10.63;;;6.00;71.60;;;;;;5010881;28;20084;-79
2021/03/01 04:49:24;;;;;;;11.70;10.57;;;6.00;71.60;;;;;;5011377;28;20397;-79
2021/03/01 04:51:51;;;;;;;11.38;10.27;;;6.00;71.60;;;;;;5005994;28;20501;-79
2021/03/01 04:54:17;;;;;;;11.63;10.43;;;5.90;71.40;;;;;;5013911;28;20048;-79
2021/03/01 04:56:44;;;;;;;12.02;10.48;;;5.90;71.40;;;;;;5031241;28;20025;-78
2021/03/01 04:59:13;;;;;;;10.63;9.55;;;5.90;71.40;;;;;;5031059;28;20167;-80
2021/03/01 05:01:42;;;;;;;11.63;10.30;;;5.90;71.50;;;;;;5020157;28;20449;-77
2021/03/01 05:04:08;;;;;;;12.38;10.18;;;5.90;71.50;;;;;;5011162;28;20117;-80
2021/03/01 05:06:34;;;;;;;11.95;9.82;;;5.80;71.40;;;;;;5011458;28;20034;-78
2021/03/01 05:09:02;;;;;;;11.95;10.75;;;5.80;71.40;;;;;;5010878;28;20036;-80
2021/03/01 05:11:32;;;;;;;12.07;10.27;;;5.80;71.40;;;;;;5012712;28;20045;-81
2021/03/01 05:13:58;;;;;;;10.80;9.70;;;5.80;71.40;;;;;;5011399;28;20379;-79
2021/03/01 05:16:25;;;;;;;10.52;9.57;;;5.80;71.50;;;;;;5010898;28;20431;-78
2021/03/01 05:18:52;;;;;;;12.05;10.73;;;5.80;71.50;;;;;;5011102;28;20044;-78
2021/03/01 05:21:17;;;;;;;12.35;11.07;;;5.80;71.50;;;;;;5010936;28;20038;-78
2021/03/01 05:23:44;;;;;;;12.77;10.38;;;5.80;71.60;;;;;;5011099;28;20036;-81
2021/03/01 05:26:11;;;;;;;12.80;10.45;;;5.80;71.60;;;;;;5010914;28;20485;-79
2021/03/01 05:28:37;;;;;;;13.50;11.57;;;5.70;71.40;;;;;;4994278;28;20061;-78
2021/03/01 05:31:07;;;;;;;11.82;10.27;;;5.70;71.40;;;;;;4994394;28;20033;-80
2021/03/01 05:33:33;;;;;;;11.40;10.23;;;5.80;71.60;;;;;;5010710;28;20076;-80
2021/03/01 05:36:00;;;;;;;10.63;9.52;;;5.70;71.40;;;;;;5010464;28;20401;-79
2021/03/01 05:38:27;;;;;;;11.07;9.70;;;5.70;71.50;;;;;;5012368;28;20056;-78
2021/03/01 05:40:54;;;;;;;12.40;11.10;;;5.70;71.50;;;;;;5010571;28;20042;-78
2021/03/01 05:43:23;;;;;;;12.32;11.18;;;5.70;71.50;;;;;;4993879;28;20091;-77
2021/03/01 05:45:50;;;;;;;12.23;10.93;;;5.70;71.60;;;;;;5009836;28;20058;-79
2021/03/01 05:48:20;;;;;;;12.57;11.30;;;5.70;71.60;;;;;;5004543;28;20030;-79
2021/03/01 05:50:47;;;;;;;12.77;11.30;;;5.60;71.40;;;;;;4989248;28;20133;-78
2021/03/01 05:53:18;;;;;;;13.77;11.95;;;5.70;71.60;;;;;;4989517;28;20085;-81
2021/03/01 05:55:44;;;;;;;13.48;12.18;;;5.60;71.50;;;;;;4993519;28;20026;-78
2021/03/01 05:58:11;;;;;;;13.98;12.10;;;5.70;71.60;;;;;;5008289;28;20033;-79
2021/03/01 06:00:37;;;;;;;16.27;12.80;;;5.70;71.70;;;;;;5008566;28;20057;-79
2021/03/01 06:03:04;;;;;;;14.57;13.02;;;5.70;71.60;;;;;;5002839;28;20033;-80
2021/03/01 06:05:30;;;;;;;15.05;12.60;;;5.70;71.60;;;;;;4977743;28;20027;-79
2021/03/01 06:07:56;;;;;;;14.35;12.85;;;5.70;71.60;;;;;;5002303;28;20495;-80
2021/03/01 06:10:23;;;;;;;14.35;12.77;;;5.70;71.60;;;;;;4986978;28;20025;-79
2021/03/01 06:12:48;;;;;;;17.23;13.50;;;5.70;71.60;;;;;;5005735;28;20034;-79
2021/03/01 06:15:15;;;;;;;15.05;12.57;;;5.80;71.80;;;;;;4989599;28;20125;-81
2021/03/01 06:17:41;;;;;;;16.13;14.45;;;5.80;71.80;;;;;;5003753;28;20469;-78
2021/03/01 06:20:10;;;;;;;15.48;13.88;;;5.80;71.80;;;;;;5002417;28;20043;-78
2021/03/01 06:22:42;;;;;;;14.80;13.13;;;5.80;71.70;;;;;;5005605;28;20036;-82
2021/03/01 06:25:12;;;;;;;17.50;15.60;;;5.80;71.70;;;;;;5001709;28;20478;-83
2021/03/01 06:27:53;;;;;;;17.75;15.60;;;5.80;71.70;;;;;;4987750;28;20065;-80
2021/03/01 06:30:21;;;;;;;18.30;13.98;;;5.90;71.90;;;;;;5005599;28;20064;-81
2021/03/01 06:33:23;;;;;;;17.67;14.52;;;5.90;71.90;;;;;;5007766;28;20030;-85
2021/03/01 06:35:51;;;;;;;19.25;16.85;;;5.90;72.10;;;;;;4993483;28;20096;-80
2021/03/01 06:38:17;;;;;;;20.95;16.45;;;6.00;72.10;;;;;;4993131;28;20423;-82
2021/03/01 06:40:44;;;;;;;18.92;15.88;;;6.10;72.20;;;;;;5022053;28;20107;-80
2021/03/01 06:43:11;;;;;;;24.10;18.10;;;6.10;72.20;;;;;;4981133;28;20036;-83
2021/03/01 06:45:37;;;;;;;20.77;17.70;;;6.10;72.20;;;;;;5006709;28;20457;-82
2021/03/01 06:48:04;;;;;;;18.95;16.67;;;6.10;72.20;;;;;;5007066;28;20125;-87
2021/03/01 06:50:35;;;;;;;23.25;18.23;;;6.20;72.30;;;;;;4990815;28;20125;-81
2021/03/01 06:53:09;;;;;;;20.80;18.60;;;6.20;72.30;;;;;;5020975;28;20175;-81
2021/03/01 06:55:35;;;;;;;23.55;19.60;;;6.20;72.30;;;;;;5007793;28;20053;-82
2021/03/01 06:58:39;;;;;;;23.40;18.27;;;6.20;72.30;;;;;;5006954;28;20394;-79
2021/03/01 07:01:13;;;;;;;22.80;20.13;;;6.20;72.40;;;;;;4991560;28;20516;-82
2021/03/01 07:03:41;;;;;;;24.17;19.02;;;6.30;72.50;;;;;;5007429;28;20269;-84
2021/03/01 07:06:08;;;;;;;19.73;17.63;;;6.30;72.50;;;;;;5002371;28;20460;-86
2021/03/01 07:08:46;;;;;;;25.55;20.02;;;6.30;72.50;;;;;;4993342;28;20465;-82
2021/03/01 07:11:32;;;;;;;25.90;19.98;;;6.30;72.50;;;;;;5005031;28;20140;-84
2021/03/01 07:14:04;;;;;;;24.80;19.80;;;6.30;73.10;;;;;;4988027;28;20548;-84
2021/03/01 07:16:37;;;;;;;21.65;19.35;;;6.30;72.50;;;;;;5001341;28;20355;-85
2021/03/01 07:19:06;;;;;;;25.57;22.17;;;6.30;72.50;;;;;;5003946;28;20040;-88
2021/03/01 07:21:34;;;;;;;29.58;21.30;;;6.30;72.50;;;;;;4999156;28;20296;-86
2021/03/01 07:24:01;;;;;;;24.55;19.58;;;6.30;72.50;;;;;;5005395;28;20034;-88
2021/03/01 07:26:27;;;;;;;24.15;19.75;;;6.40;72.70;;;;;;5004193;28;20445;-86
2021/03/01 07:29:00;;;;;;;23.95;21.42;;;6.40;72.70;;;;;;5005736;28;20133;-89
2021/03/01 07:31:27;;;;;;;22.50;20.07;;;6.40;72.70;;;;;;5006755;28;20587;-81
2021/03/01 07:33:55;;;;;;;26.88;20.40;;;6.40;72.70;;;;;;5006016;28;20038;-88
2021/03/01 07:36:21;;;;;;;27.40;22.08;;;6.40;72.80;;;;;;4990277;28;20041;-82
2021/03/01 07:38:48;;;;;;;27.15;21.90;;;6.40;72.70;;;;;;5007501;28;20536;-84
2021/03/01 07:41:14;;;;;;;24.45;21.50;;;6.40;72.70;;;;;;5005614;28;20137;-86
2021/03/01 07:43:42;;;;;;;25.33;21.00;;;6.40;72.70;;;;;;5005093;28;20041;-84
2021/03/01 07:46:09;;;;;;;27.30;23.10;;;6.40;72.80;;;;;;5004747;28;20034;-81
2021/03/01 07:48:40;;;;;;;27.02;22.35;;;6.50;72.90;;;;;;5006809;28;20025;-82
2021/03/01 07:51:07;;;;;;;27.98;22.17;;;6.50;72.90;;;;;;4989583;28;20117;-83
2021/03/01 07:53:48;;;;;;;29.05;22.15;;;6.50;72.90;;;;;;5005803;28;20026;-81
2021/03/01 07:56:23;;;;;;;28.20;22.02;;;6.50;72.90;;;;;;5023548;28;20045;-78
2021/03/01 07:59:00;;;;;;;27.38;22.48;;;6.50;72.90;;;;;;4997651;28;20042;-79
2021/03/01 08:01:27;;;;;;;29.90;22.83;;;6.60;73.10;;;;;;5005232;28;20053;-78
2021/03/01 08:03:53;;;;;;;31.40;23.42;;;6.60;73.00;;;;;;5007863;28;20485;-78
2021/03/01 08:06:21;;;;;;;27.92;22.88;;;6.60;73.00;;;;;;4998729;28;20042;-78
2021/03/01 08:08:49;;;;;;;27.38;23.38;;;6.60;73.00;;;;;;5011327;28;20465;-79
2021/03/01 08:11:35;;;;;;;26.73;23.88;;;6.60;73.00;;;;;;5016167;28;20044;-81
2021/03/01 08:14:02;;;;;;;29.10;23.30;;;6.70;73.10;;;;;;5005095;28;20037;-82
2021/03/01 08:16:28;;;;;;;29.42;24.02;;;6.70;73.10;;;;;;5005522;28;20470;-82
2021/03/01 08:18:58;;;;;;;29.17;23.33;;;6.70;73.00;;;;;;4987635;28;20026;-81
2021/03/01 08:21:27;;;;;;;28.13;23.95;;;6.70;73.00;;;;;;5004789;28;20053;-82
2021/03/01 08:23:54;;;;;;;34.55;24.90;;;6.80;73.20;;;;;;5003657;28;20030;-83
2021/03/01 08:26:34;;;;;;;27.83;24.83;;;6.70;73.00;;;;;;4988572;28;20034;-81
2021/03/01 08:29:15;;;;;;;28.15;23.70;;;6.80;73.20;;;;;;4988167;28;20275;-79
2021/03/01 08:31:41;;;;;;;31.42;24.85;;;6.80;73.20;;;;;;5004519;28;20034;-81
2021/03/01 08:34:27;;;;;;;31.13;25.90;;;6.80;73.20;;;;;;5005406;28;20144;-81
2021/03/01 08:36:54;;;;;;;29.48;25.13;;;6.90;73.30;;;;;;5003749;28;20132;-81
2021/03/01 08:39:59;;;;;;;31.60;25.77;;;6.90;73.20;;;;;;5004138;28;20034;-79
2021/03/01 08:42:54;;;;;;;33.45;24.50;;;7.00;73.40;;;;;;4951094;28;20046;-83
2021/03/01 08:45:25;;;;;;;;;;;7.00;73.40;;;;;;5008457;28;20049;-82
2021/03/01 08:47:57;;;;;;;33.55;25.02;;;7.00;73.30;;;;;;5024734;28;19996;-81
2021/03/01 08:50:29;;;;;;;29.33;24.65;;;7.00;73.20;;;;;;5025058;28;20056;-81
2021/03/01 08:52:55;;;;;;;30.55;25.15;;;7.10;73.30;;;;;;5003737;28;20152;-81
2021/03/01 08:55:22;;;;;;;30.40;25.23;;;7.20;73.50;;;;;;5020128;28;20045;-82
2021/03/01 08:57:56;;;;;;;33.83;26.40;;;7.20;73.50;;;;;;5026201;28;20163;-83
2021/03/01 09:00:22;;;;;;;33.08;25.70;;;7.20;73.50;;;;;;5007331;28;20189;-80
2021/03/01 09:02:48;;;;;;;29.08;25.25;;;7.30;73.60;;;;;;4991952;28;20168;-85
2021/03/01 09:05:18;;;;;;;32.10;26.05;;;7.30;73.50;;;;;;5008625;28;20549;-88
2021/03/01 09:07:45;;;;;;;34.95;26.45;;;7.40;73.90;;;;;;5008375;28;20492;-84
2021/03/01 09:10:12;;;;;;;29.80;25.17;;;7.40;74.00;;;;;;5023805;28;20062;-78
2021/03/01 09:12:42;;;;;;;35.53;26.75;;;7.50;74.30;;;;;;5006835;28;20098;-84
2021/03/01 09:15:09;;;;;;;32.90;25.35;;;7.60;74.40;;;;;;5007979;28;20029;-80
2021/03/01 09:17:35;;;;;;;32.80;25.63;;;7.70;74.50;;;;;;5007339;28;20453;-77
2021/03/01 09:20:03;;;;;;;32.03;25.13;;;7.70;74.40;;;;;;5012427;28;20055;-78
2021/03/01 09:22:43;;;;;;;33.72;26.35;;;7.70;74.40;;;;;;5007562;28;20122;-82
2021/03/01 09:25:32;;;;;;;26.52;23.30;;;7.70;74.40;;;;;;4990942;28;20025;-85
2021/03/01 09:27:59;;;;;;;32.17;25.65;;;7.70;74.30;;;;;;4992027;28;20026;-81
2021/03/01 09:30:27;;;;;;;27.98;23.48;;;7.80;74.40;;;;;;5007069;28;20121;-80
2021/03/01 09:33:06;;;;;;;31.90;24.88;;;7.80;74.40;;;;;;5009033;28;20125;-78
2021/03/01 09:35:35;;;;;;;33.08;27.02;;;7.80;74.40;;;;;;5009121;28;20342;-78
2021/03/01 09:38:05;;;;;;;33.22;26.55;;;7.80;74.40;;;;;;5006460;28;20553;-78
2021/03/01 09:40:32;;;;;;;30.23;25.23;;;7.80;74.50;;;;;;5008528;28;20041;-78
2021/03/01 09:43:04;;;;;;;30.17;24.48;;;7.80;74.40;;;;;;5006460;28;20041;-79
2021/03/01 09:45:36;;;;;;;34.10;26.80;;;7.80;74.40;;;;;;5006128;28;20464;-77
2021/03/01 09:48:06;;;;;;;32.92;25.52;;;7.80;74.40;;;;;;5006915;28;20081;-79
2021/03/01 09:50:36;;;;;;;35.92;26.60;;;7.80;74.40;;;;;;5006343;28;20039;-78
2021/03/01 09:53:05;;;;;;;33.47;25.52;;;7.90;74.50;;;;;;5006319;28;20034;-77
2021/03/01 09:55:32;;;;;;;30.60;25.25;;;7.90;74.50;;;;;;5019740;28;20030;-79
2021/03/01 09:57:58;;;;;;;30.80;26.25;;;7.90;74.40;;;;;;5024124;28;20846;-78
2021/03/01 10:00:30;;;;;;;33.05;26.38;;;7.90;74.40;;;;;;5007119;28;20058;-83
2021/03/01 10:02:59;;;;;;;32.40;25.67;;;7.90;74.40;;;;;;5006824;28;20030;-82
2021/03/01 10:05:27;;;;;;;29.25;25.48;;;8.00;74.50;;;;;;5008462;28;20393;-79
2021/03/01 10:08:05;;;;;;;31.23;26.30;;;8.00;74.50;;;;;;5006285;28;20030;-85
2021/03/01 10:10:39;;;;;;;28.75;23.95;;;8.00;74.50;;;;;;4987002;28;20030;-78
2021/03/01 10:13:06;;;;;;;29.92;25.83;;;8.00;74.40;;;;;;4994746;28;20026;-87
2021/03/01 10:15:46;;;;;;;32.10;26.38;;;8.10;74.60;;;;;;5006768;28;20434;-85
2021/03/01 10:18:16;;;;;;;27.73;24.42;;;8.00;74.40;;;;;;5003798;28;20031;-79
2021/03/01 10:20:56;;;;;;;29.70;25.05;;;8.10;74.50;;;;;;4987796;28;20054;-83
2021/03/01 10:23:42;;;;;;;33.17;25.80;;;8.20;74.60;;;;;;4980532;28;20034;-82
2021/03/01 10:26:16;;;;;;;29.55;26.33;;;8.20;74.60;;;;;;5005225;28;20034;-77
2021/03/01 10:28:46;;;;;;;34.05;27.27;;;8.30;74.60;;;;;;5008824;28;20034;-78
2021/03/01 10:31:17;;;;;;;30.23;25.88;;;8.40;74.70;;;;;;5011510;28;20781;-81
2021/03/01 10:33:54;;;;;;;28.60;24.95;;;8.40;74.70;;;;;;5006919;28;20030;-81
2021/03/01 10:36:21;;;;;;;30.63;26.15;;;8.50;74.70;;;;;;5007989;28;20034;-82
2021/03/01 10:38:58;;;;;;;32.35;25.63;;;8.60;74.80;;;;;;5009012;28;20168;-86
2021/03/01 10:41:28;;;;;;;28.70;25.65;;;8.70;74.90;;;;;;5006789;28;20045;-83
2021/03/01 10:43:59;;;;;;;29.38;25.13;;;8.80;75.00;;;;;;4993597;28;20034;-79
2021/03/01 10:46:34;;;;;;;30.77;24.33;;;8.90;75.10;;;;;;4985875;28;20505;-83
2021/03/01 10:49:02;;;;;;;27.05;24.10;;;8.90;75.00;;;;;;4997151;28;20561;-82
2021/03/01 10:51:28;;;;;;;32.78;24.52;;;9.00;75.10;;;;;;4988893;28;20026;-80
2021/03/01 10:53:54;;;;;;;30.65;25.45;;;9.10;75.10;;;;;;5007428;28;20033;-83
2021/03/01 10:56:20;;;;;;;30.70;25.52;;;9.20;75.20;;;;;;5002324;28;20510;-79
2021/03/01 10:58:46;;;;;;;29.33;24.45;;;9.20;75.00;;;;;;5012155;28;20208;-79
2021/03/01 11:01:12;;;;;;;34.35;25.88;;;9.30;75.10;;;;;;5005458;28;20053;-80
2021/03/01 11:03:39;;;;;;;31.90;26.13;;;9.40;75.20;;;;;;5004608;28;20025;-78
2021/03/01 11:06:05;;;;;;;27.45;24.17;;;9.50;75.20;;;;;;5005792;28;20394;-81
2021/03/01 11:08:31;;;;;;;28.38;24.17;;;9.50;75.10;;;;;;5005658;28;20132;-80
2021/03/01 11:10:57;;;;;;;26.70;23.83;;;9.60;75.10;;;;;;5004322;28;20588;-78
2021/03/01 11:13:23;;;;;;;26.98;24.13;;;9.70;75.10;;;;;;5003939;28;20030;-78
2021/03/01 11:15:49;;;;;;;29.60;24.27;;;9.80;75.20;;;;;;5004072;28;20025;-76
2021/03/01 11:18:15;;;;;;;28.70;25.60;;;9.90;75.20;;;;;;4987784;28;20091;-80
2021/03/01 11:20:41;;;;;;;29.38;24.77;;;10.00;75.20;;;;;;4988999;28;20046;-77
2021/03/01 11:23:07;;;;;;;30.35;25.58;;;10.00;75.10;;;;;;5003734;28;20060;-80
2021/03/01 11:25:34;;;;;;;30.20;25.42;;;10.10;75.10;;;;;;5004292;28;20421;-82
2021/03/01 11:28:01;;;;;;;29.17;23.98;;;10.10;75.10;;;;;;5004883;28;20152;-79
2021/03/01 11:30:28;;;;;;;30.25;24.50;;;10.20;75.20;;;;;;5003920;28;20124;-79
2021/03/01 11:32:54;;;;;;;29.35;24.90;;;10.30;75.20;;;;;;5017460;28;20485;-79
2021/03/01 11:35:20;;;;;;;30.77;26.45;;;10.30;75.10;;;;;;5003946;28;20088;-78
2021/03/01 11:37:46;;;;;;;29.08;25.45;;;10.40;75.10;;;;;;5004313;28;20079;-79
2021/03/01 11:40:13;;;;;;;29.52;24.83;;;10.50;75.10;;;;;;5005009;28;20033;-78
2021/03/01 11:42:39;;;;;;;30.10;25.05;;;10.60;75.30;;;;;;5004053;28;20045;-77
2021/03/01 11:45:06;;;;;;;27.92;24.83;;;10.70;75.40;;;;;;5006417;28;20030;-77
2021/03/01 11:47:32;;;;;;;30.83;25.55;;;10.80;75.40;;;;;;4997708;28;20346;-79
2021/03/01 11:49:58;;;;;;;32.53;25.65;;;11.00;75.60;;;;;;5003715;28;20036;-78
2021/03/01 11:52:24;;;;;;;27.55;24.65;;;11.10;75.50;;;;;;5003977;28;20033;-80
2021/03/01 11:54:49;;;;;;;33.42;24.92;;;11.20;75.50;;;;;;5007233;28;20441;-79
2021/03/01 11:57:15;;;;;;;27.80;24.27;;;11.30;75.50;;;;;;5023541;28;20037;-78
2021/03/01 11:59:41;;;;;;;28.50;24.60;;;11.40;75.40;;;;;;4989947;28;20054;-76
2021/03/01 12:02:07;;;;;;;30.15;24.10;;;11.60;75.60;;;;;;4986679;28;20037;-78
2021/03/01 12:04:33;;;;;;;31.77;25.42;;;11.70;75.50;;;;;;4984322;28;20098;-82
2021/03/01 12:06:59;;;;;;;33.13;25.27;;;11.70;75.30;;;;;;4984187;28;20456;-79
2021/03/01 12:09:25;;;;;;;28.48;25.23;;;11.90;75.50;;;;;;4995069;28;20478;-80
2021/03/01 12:11:51;;;;;;;30.55;24.40;;;11.90;75.30;;;;;;5000698;28;20415;-79
2021/03/01 12:14:17;;;;;;;27.23;24.13;;;12.00;75.40;;;;;;4998647;28;20114;-79
2021/03/01 12:16:43;;;;;;;29.00;25.58;;;12.10;75.40;;;;;;5003871;28;20030;-85
2021/03/01 12:19:09;;;;;;;29.58;25.83;;;12.20;75.40;;;;;;4999388;28;20141;-80
2021/03/01 12:21:35;;;;;;;28.10;24.38;;;12.30;75.40;;;;;;5009041;28;20065;-78
2021/03/01 12:24:02;;;;;;;29.92;23.50;;;12.30;75.30;;;;;;5008820;28;20220;-77
2021/03/01 12:26:28;;;;;;;32.15;24.55;;;12.30;75.20;;;;;;4991566;28;20032;-77
2021/03/01 12:28:54;;;;;;;32.22;26.85;;;12.50;75.50;;;;;;5008965;28;20041;-80
2021/03/01 12:31:20;;;;;;;32.33;25.30;;;12.50;75.30;;;;;;5009425;28;20034;-80
2021/03/01 12:33:46;;;;;;;27.77;24.42;;;12.60;75.20;;;;;;5009646;28;20611;-82
2021/03/01 12:36:12;;;;;;;31.58;24.85;;;12.60;75.00;;;;;;5007762;28;20026;-80
2021/03/01 12:38:38;;;;;;;30.50;24.42;;;12.70;75.10;;;;;;5008993;28;20387;-81
2021/03/01 12:41:04;;;;;;;30.15;25.60;;;12.70;75.00;;;;;;5009237;28;20078;-81
2021/03/01 12:43:30;;;;;;;30.38;26.25;;;12.80;75.10;;;;;;5009293;28;20037;-78